Time;durP1;ratioP1;P1;durP2;ratioP2;P2;SDS_P1;SDS_P2;PMS_P1;PMS_P2;Temp;Humidity;BMP_temperature;BMP_pressure;BME280_temperature;BME280_humidity;BME280_pressure;Samples;Min_cycle;Max_cycle;Signal;HPM_P1;HPM_P2
2023/07/03 00:00:42;;;;;;;11.32;3.47;;;15.90;99.90;;;;;;5091902;28;20169;-52
2023/07/03 00:03:13;;;;;;;14.13;4.22;;;15.80;99.90;;;;;;5091791;28;20244;-51
2023/07/03 00:05:43;;;;;;;13.75;4.45;;;15.90;99.90;;;;;;5091729;28;20161;-51
2023/07/03 00:08:09;;;;;;;14.77;4.32;;;15.90;99.90;;;;;;5091692;28;20161;-51
2023/07/03 00:10:34;;;;;;;15.40;4.05;;;15.80;99.90;;;;;;5091690;28;20209;-51
2023/07/03 00:13:00;;;;;;;16.75;3.90;;;15.70;99.90;;;;;;5091420;28;20172;-51
2023/07/03 00:15:26;;;;;;;14.32;3.88;;;15.70;99.90;;;;;;5091960;28;20197;-51
2023/07/03 00:17:51;;;;;;;16.40;3.88;;;15.70;99.90;;;;;;5091601;28;20157;-51
2023/07/03 00:20:17;;;;;;;14.98;3.85;;;15.60;99.90;;;;;;5091669;28;20246;-51
2023/07/03 00:22:43;;;;;;;15.77;3.92;;;15.60;99.90;;;;;;5091847;28;20169;-51
2023/07/03 00:25:09;;;;;;;12.98;3.42;;;15.60;99.90;;;;;;5073485;28;20215;-51
2023/07/03 00:27:35;;;;;;;16.70;4.53;;;15.60;99.90;;;;;;5091800;28;20680;-51
2023/07/03 00:30:01;;;;;;;12.68;3.92;;;15.60;99.90;;;;;;5091490;28;20613;-50
2023/07/03 00:32:28;;;;;;;15.65;4.65;;;15.70;99.90;;;;;;5091928;28;20562;-51
2023/07/03 00:34:54;;;;;;;15.32;4.47;;;15.60;99.90;;;;;;5091398;28;20568;-51
2023/07/03 00:37:21;;;;;;;12.85;4.43;;;15.60;99.90;;;;;;5091370;28;20174;-51
2023/07/03 00:39:46;;;;;;;15.05;3.60;;;15.60;99.90;;;;;;5091373;28;20525;-51
2023/07/03 00:42:12;;;;;;;20.00;4.05;;;15.50;99.90;;;;;;5091348;28;20173;-51
2023/07/03 00:44:38;;;;;;;14.93;3.90;;;15.50;99.90;;;;;;5091344;28;20166;-50
2023/07/03 00:47:04;;;;;;;15.50;3.83;;;15.40;99.90;;;;;;5091281;28;20169;-51
2023/07/03 00:49:31;;;;;;;13.68;3.88;;;15.40;99.90;;;;;;5091565;28;20177;-51
2023/07/03 00:51:59;;;;;;;11.82;3.65;;;15.40;99.90;;;;;;5091950;28;20282;-51
2023/07/03 00:54:24;;;;;;;13.27;4.68;;;15.40;99.90;;;;;;5091681;28;20185;-51
2023/07/03 00:56:50;;;;;;;11.77;3.58;;;15.40;99.90;;;;;;5091171;28;20607;-51
2023/07/03 00:59:17;;;;;;;12.25;3.67;;;15.30;99.90;;;;;;5091531;28;20177;-51
2023/07/03 01:01:53;;;;;;;12.73;3.85;;;15.20;99.90;;;;;;5091276;28;20244;-51
2023/07/03 01:04:25;;;;;;;16.83;4.85;;;15.30;99.90;;;;;;5091203;28;20163;-51
2023/07/03 01:06:56;;;;;;;11.57;3.95;;;15.20;99.90;;;;;;5091179;28;20183;-51
2023/07/03 01:09:26;;;;;;;12.07;3.90;;;15.10;99.90;;;;;;5091018;28;20687;-51
2023/07/03 01:11:53;;;;;;;13.00;3.67;;;15.00;99.90;;;;;;5091167;28;20165;-51
2023/07/03 01:14:20;;;;;;;18.63;4.07;;;15.00;99.90;;;;;;5091235;28;20161;-51
2023/07/03 01:16:48;;;;;;;12.82;4.20;;;15.00;99.90;;;;;;5090971;28;20672;-51
2023/07/03 01:19:20;;;;;;;15.30;4.20;;;15.00;99.90;;;;;;5091300;28;20194;-51
2023/07/03 01:21:55;;;;;;;15.32;3.50;;;15.00;99.90;;;;;;5091021;28;20173;-51
2023/07/03 01:24:37;;;;;;;12.05;3.75;;;15.00;99.90;;;;;;5072899;28;20169;-51
2023/07/03 01:27:05;;;;;;;9.50;4.18;;;15.00;99.90;;;;;;5094757;28;20157;-51
2023/07/03 01:29:32;;;;;;;13.05;3.70;;;15.00;99.90;;;;;;5094885;28;20595;-51
2023/07/03 01:31:59;;;;;;;14.50;4.47;;;14.90;99.90;;;;;;5094606;28;20245;-51
2023/07/03 01:34:27;;;;;;;12.23;3.90;;;15.00;99.90;;;;;;5094940;28;20570;-51
2023/07/03 01:36:56;;;;;;;19.25;4.85;;;14.90;99.90;;;;;;5094709;28;20233;-51
2023/07/03 01:39:21;;;;;;;15.40;4.05;;;14.90;99.90;;;;;;5094468;28;20165;-51
2023/07/03 01:41:48;;;;;;;12.27;4.15;;;14.80;99.90;;;;;;5094440;28;20633;-51
2023/07/03 01:44:14;;;;;;;16.27;4.68;;;14.80;99.90;;;;;;5094398;28;20177;-51
2023/07/03 01:46:39;;;;;;;16.27;4.22;;;14.80;99.90;;;;;;5094334;28;20173;-51
2023/07/03 01:49:14;;;;;;;14.73;4.65;;;14.80;99.90;;;;;;5094262;28;20643;-51
2023/07/03 01:52:10;;;;;;;10.80;4.03;;;14.80;99.90;;;;;;5094202;28;20171;-51
2023/07/03 01:54:46;;;;;;;13.15;3.97;;;14.80;99.90;;;;;;5094072;28;20667;-51
2023/07/03 01:57:18;;;;;;;12.18;3.95;;;14.70;99.90;;;;;;5093962;28;20207;-51
2023/07/03 01:59:46;;;;;;;16.13;4.78;;;14.70;99.90;;;;;;5094276;28;20566;-51
2023/07/03 02:02:16;;;;;;;19.15;4.90;;;14.70;99.90;;;;;;5094019;28;20173;-51
2023/07/03 02:04:50;;;;;;;15.60;4.47;;;14.70;99.90;;;;;;5093984;28;20158;-51
2023/07/03 02:07:17;;;;;;;15.85;3.97;;;14.70;99.90;;;;;;5094170;28;20213;-51
2023/07/03 02:09:43;;;;;;;14.88;3.88;;;14.70;99.90;;;;;;5093723;28;20714;-51
2023/07/03 02:12:11;;;;;;;15.30;3.63;;;14.60;99.90;;;;;;5093857;28;20684;-51
2023/07/03 02:14:38;;;;;;;13.65;3.33;;;14.60;99.90;;;;;;5094038;28;20174;-51
2023/07/03 02:17:05;;;;;;;18.55;4.25;;;14.60;99.90;;;;;;5093604;28;20611;-51
2023/07/03 02:19:33;;;;;;;15.38;4.78;;;14.60;99.90;;;;;;5093948;28;20170;-51
2023/07/03 02:21:59;;;;;;;17.63;3.85;;;14.60;99.90;;;;;;5093875;28;20205;-51
2023/07/03 02:24:25;;;;;;;17.65;4.88;;;14.60;99.90;;;;;;5093894;28;20176;-51
2023/07/03 02:26:51;;;;;;;14.32;4.15;;;14.60;99.90;;;;;;5093532;28;20203;-51
2023/07/03 02:29:17;;;;;;;21.42;4.45;;;14.60;99.90;;;;;;5093734;28;20173;-51
2023/07/03 02:31:42;;;;;;;15.27;4.55;;;14.60;99.90;;;;;;5093511;28;20165;-51
2023/07/03 02:34:08;;;;;;;17.10;3.67;;;14.60;99.90;;;;;;5093366;28;20242;-51
2023/07/03 02:36:38;;;;;;;18.08;4.22;;;14.60;99.90;;;;;;5093088;28;20276;-51
2023/07/03 02:39:05;;;;;;;22.80;5.25;;;14.60;99.90;;;;;;5093321;28;20200;-51
2023/07/03 02:41:31;;;;;;;20.33;4.53;;;14.60;99.90;;;;;;5093650;28;20227;-51
2023/07/03 02:43:57;;;;;;;14.45;3.72;;;14.60;99.90;;;;;;5093833;28;20169;-51
2023/07/03 02:46:23;;;;;;;17.92;3.78;;;14.60;99.90;;;;;;5093751;28;20169;-51
2023/07/03 02:48:48;;;;;;;18.77;3.95;;;14.60;99.90;;;;;;5075048;28;20637;-51
2023/07/03 02:51:14;;;;;;;23.73;5.20;;;14.60;99.90;;;;;;5093431;28;20570;-51
2023/07/03 02:53:41;;;;;;;14.00;4.28;;;14.60;99.90;;;;;;5093013;28;20249;-51
2023/07/03 02:56:06;;;;;;;20.60;4.65;;;14.60;99.90;;;;;;5092841;28;20296;-51
2023/07/03 02:58:32;;;;;;;21.85;4.60;;;14.70;99.90;;;;;;5093213;28;20201;-51
2023/07/03 03:00:58;;;;;;;21.13;4.45;;;14.70;99.90;;;;;;5093109;28;20169;-51
2023/07/03 03:03:24;;;;;;;15.57;3.80;;;14.70;99.90;;;;;;5093216;28;20165;-50
2023/07/03 03:05:50;;;;;;;16.15;4.05;;;14.70;99.90;;;;;;5093014;28;20165;-51
2023/07/03 03:08:15;;;;;;;17.52;3.70;;;14.70;99.90;;;;;;5092724;28;20242;-51
2023/07/03 03:10:41;;;;;;;20.27;4.03;;;14.70;99.90;;;;;;5092583;28;20223;-51
2023/07/03 03:13:07;;;;;;;14.35;4.18;;;14.70;99.90;;;;;;5092698;28;20249;-51
2023/07/03 03:15:34;;;;;;;16.55;4.03;;;14.70;99.90;;;;;;5092471;28;20288;-50
2023/07/03 03:18:00;;;;;;;20.05;3.85;;;14.70;99.90;;;;;;5092683;28;20172;-50
2023/07/03 03:20:26;;;;;;;16.30;4.40;;;14.70;99.90;;;;;;5075316;28;20259;-50
2023/07/03 03:22:51;;;;;;;16.23;4.05;;;14.70;99.90;;;;;;5072242;28;20162;-51
2023/07/03 03:25:17;;;;;;;17.33;4.15;;;14.80;99.90;;;;;;5072217;28;20648;-51
2023/07/03 03:27:43;;;;;;;11.70;3.42;;;14.70;99.90;;;;;;5072179;28;20265;-51
2023/07/03 03:30:09;;;;;;;16.35;3.90;;;14.70;99.90;;;;;;5072113;28;20170;-51
2023/07/03 03:32:34;;;;;;;16.45;3.85;;;14.80;99.90;;;;;;5072001;28;20311;-51
2023/07/03 03:35:00;;;;;;;19.17;4.55;;;14.80;99.90;;;;;;5071873;28;20244;-51
2023/07/03 03:37:26;;;;;;;21.90;4.18;;;14.80;99.90;;;;;;5072663;28;20183;-51
2023/07/03 03:39:52;;;;;;;15.00;4.10;;;14.80;99.90;;;;;;5071873;28;20166;-51
2023/07/03 03:42:17;;;;;;;16.15;5.00;;;14.90;99.90;;;;;;5071915;28;20647;-51
2023/07/03 03:44:43;;;;;;;13.70;3.75;;;14.80;99.90;;;;;;5071990;28;20520;-51
2023/07/03 03:47:09;;;;;;;14.80;4.63;;;14.90;99.90;;;;;;5071554;28;20166;-51
2023/07/03 03:49:34;;;;;;;20.02;4.93;;;14.90;99.90;;;;;;5071851;28;20197;-51
2023/07/03 03:52:00;;;;;;;13.77;4.18;;;14.90;99.90;;;;;;5071755;28;20193;-51
2023/07/03 03:54:29;;;;;;;16.25;4.18;;;14.90;99.90;;;;;;5072329;28;20158;-51
2023/07/03 03:56:54;;;;;;;15.85;4.32;;;14.90;99.90;;;;;;5071982;28;20201;-51
2023/07/03 03:59:21;;;;;;;15.30;3.63;;;14.90;99.90;;;;;;5071573;28;20518;-51
2023/07/03 04:01:48;;;;;;;12.82;4.07;;;14.90;99.90;;;;;;5071796;28;20182;-51
2023/07/03 04:04:14;;;;;;;18.75;4.53;;;14.90;99.90;;;;;;5053623;28;20161;-51
2023/07/03 04:06:40;;;;;;;22.38;4.70;;;14.90;99.90;;;;;;5053841;28;20166;-51
2023/07/03 04:09:07;;;;;;;14.85;4.05;;;15.00;99.90;;;;;;5071657;28;20599;-51
2023/07/03 04:11:36;;;;;;;17.27;4.88;;;15.00;99.90;;;;;;5071711;28;20170;-51
2023/07/03 04:14:02;;;;;;;16.77;4.55;;;15.00;99.90;;;;;;5071583;28;20169;-51
2023/07/03 04:16:31;;;;;;;21.58;5.07;;;15.10;99.90;;;;;;5071590;28;20205;-51
2023/07/03 04:18:56;;;;;;;16.75;4.43;;;15.10;99.90;;;;;;5072122;28;20535;-51
2023/07/03 04:21:22;;;;;;;16.95;4.60;;;15.10;99.90;;;;;;5071427;28;20162;-51
2023/07/03 04:23:48;;;;;;;22.48;5.40;;;15.10;99.90;;;;;;5071471;28;20617;-51
2023/07/03 04:26:14;;;;;;;23.95;4.47;;;15.10;99.90;;;;;;5071636;28;20181;-51
2023/07/03 04:28:39;;;;;;;13.57;4.45;;;15.20;99.90;;;;;;5071310;28;20162;-51
2023/07/03 04:31:05;;;;;;;16.75;4.57;;;15.10;99.90;;;;;;5071358;28;20215;-51
2023/07/03 04:33:31;;;;;;;21.42;5.30;;;15.20;99.90;;;;;;5071335;28;20614;-51
2023/07/03 04:35:56;;;;;;;17.50;4.85;;;15.10;99.90;;;;;;5071780;28;20202;-51
2023/07/03 04:38:23;;;;;;;19.98;4.38;;;15.20;99.90;;;;;;5071296;28;20714;-51
2023/07/03 04:40:51;;;;;;;31.63;5.30;;;15.20;99.90;;;;;;5071415;28;20170;-51
2023/07/03 04:43:17;;;;;;;20.90;5.07;;;15.30;99.90;;;;;;5071461;28;20177;-51
2023/07/03 04:45:45;;;;;;;22.25;5.70;;;15.30;99.90;;;;;;5071168;28;20162;-51
2023/07/03 04:48:11;;;;;;;18.25;4.63;;;15.30;99.90;;;;;;5053513;28;20165;-51
2023/07/03 04:50:37;;;;;;;22.50;4.32;;;15.40;99.90;;;;;;5071011;28;20170;-51
2023/07/03 04:53:03;;;;;;;24.40;5.80;;;15.30;99.90;;;;;;5070974;28;20231;-51
2023/07/03 04:55:30;;;;;;;14.82;4.43;;;15.40;99.90;;;;;;5070951;28;20637;-51
2023/07/03 04:57:57;;;;;;;27.58;5.35;;;15.50;99.90;;;;;;5071811;28;20178;-51
2023/07/03 05:00:24;;;;;;;30.40;5.63;;;15.50;99.90;;;;;;5073218;28;20197;-51
2023/07/03 05:02:51;;;;;;;20.98;4.47;;;15.60;99.90;;;;;;5075216;28;20256;-51
2023/07/03 05:05:18;;;;;;;18.67;4.65;;;15.50;99.90;;;;;;5075311;28;20603;-51
2023/07/03 05:07:44;;;;;;;25.13;5.38;;;15.50;99.90;;;;;;5074886;28;20676;-50
2023/07/03 05:10:12;;;;;;;16.65;4.65;;;15.50;99.90;;;;;;5074711;28;20214;-53
2023/07/03 05:12:38;;;;;;;23.08;4.88;;;15.50;99.90;;;;;;5074595;28;20245;-52
2023/07/03 05:15:07;;;;;;;25.35;5.65;;;15.60;99.90;;;;;;5074668;28;20245;-51
2023/07/03 05:17:34;;;;;;;29.05;5.88;;;15.60;99.90;;;;;;5056640;28;20642;-51
2023/07/03 05:20:01;;;;;;;37.45;5.55;;;15.60;99.90;;;;;;5074580;28;20689;-51
2023/07/03 05:22:27;;;;;;;25.00;4.95;;;15.70;99.90;;;;;;5074433;28;20531;-51
2023/07/03 05:24:52;;;;;;;26.73;4.95;;;15.70;99.90;;;;;;5074639;28;20165;-51
2023/07/03 05:27:18;;;;;;;24.35;4.70;;;15.70;99.90;;;;;;5074277;28;20170;-51
2023/07/03 05:29:44;;;;;;;29.30;4.95;;;15.60;99.90;;;;;;5074178;28;20177;-50
2023/07/03 05:32:10;;;;;;;25.25;5.20;;;15.70;99.90;;;;;;5074114;28;20162;-50
2023/07/03 05:34:38;;;;;;;26.65;5.30;;;15.80;99.90;;;;;;5074142;28;20190;-52
2023/07/03 05:37:05;;;;;;;30.70;5.82;;;15.80;99.90;;;;;;5074016;28;20335;-51
2023/07/03 05:39:30;;;;;;;29.40;5.28;;;15.80;99.90;;;;;;5074236;28;20162;-50
2023/07/03 05:41:56;;;;;;;16.17;4.57;;;15.80;99.90;;;;;;5074653;28;20181;-50
2023/07/03 05:44:21;;;;;;;20.38;5.22;;;15.70;99.90;;;;;;5074383;28;20166;-51
2023/07/03 05:46:47;;;;;;;18.92;4.45;;;15.80;99.90;;;;;;5074054;28;20173;-51
2023/07/03 05:49:12;;;;;;;16.15;5.03;;;15.90;99.90;;;;;;5074115;28;20223;-51
2023/07/03 05:51:38;;;;;;;17.73;5.32;;;15.90;99.90;;;;;;5074047;28;20194;-51
2023/07/03 05:54:03;;;;;;;19.50;4.63;;;15.80;99.90;;;;;;5074026;28;20203;-52
2023/07/03 05:56:29;;;;;;;15.18;4.38;;;15.90;99.90;;;;;;5073739;28;20205;-51
2023/07/03 05:58:55;;;;;;;26.63;4.82;;;15.90;99.90;;;;;;5074292;28;20257;-51
2023/07/03 06:01:21;;;;;;;17.63;4.93;;;15.80;99.90;;;;;;5074088;28;20174;-51
2023/07/03 06:03:47;;;;;;;16.02;4.72;;;15.90;99.90;;;;;;5073846;28;20181;-51
2023/07/03 06:06:14;;;;;;;16.02;4.28;;;15.90;99.90;;;;;;5073974;28;20184;-50
2023/07/03 06:08:40;;;;;;;22.83;5.40;;;15.90;99.90;;;;;;5073795;28;20244;-51
2023/07/03 06:11:05;;;;;;;22.60;5.35;;;16.00;99.90;;;;;;5072951;28;20228;-51
2023/07/03 06:13:31;;;;;;;20.52;5.15;;;16.10;99.90;;;;;;5073621;28;20166;-50
2023/07/03 06:15:56;;;;;;;20.05;5.22;;;16.00;99.90;;;;;;5073449;28;20247;-50
2023/07/03 06:18:22;;;;;;;16.60;4.47;;;16.10;99.90;;;;;;5073875;28;20202;-51
2023/07/03 06:20:48;;;;;;;18.88;5.25;;;16.20;99.90;;;;;;5073702;28;20166;-51
2023/07/03 06:23:15;;;;;;;18.63;5.43;;;16.20;99.90;;;;;;5055467;28;20265;-50
2023/07/03 06:25:41;;;;;;;15.77;4.93;;;16.30;99.90;;;;;;5073413;28;20186;-50
2023/07/03 06:28:06;;;;;;;15.65;4.60;;;16.40;99.90;;;;;;5073269;28;20269;-51
2023/07/03 06:30:32;;;;;;;16.55;5.13;;;16.40;99.90;;;;;;5073218;28;20174;-51
2023/07/03 06:32:57;;;;;;;19.60;5.65;;;16.40;99.90;;;;;;5073165;28;20166;-51
2023/07/03 06:35:24;;;;;;;17.08;4.60;;;16.50;99.90;;;;;;5073482;28;20205;-51
2023/07/03 06:37:52;;;;;;;19.80;5.05;;;16.50;99.90;;;;;;5073395;28;20181;-51
2023/07/03 06:40:19;;;;;;;22.75;5.00;;;16.80;99.90;;;;;;5073294;28;20181;-51
2023/07/03 06:42:45;;;;;;;16.73;5.07;;;16.80;99.90;;;;;;5073238;28;20188;-51
2023/07/03 06:45:11;;;;;;;20.35;5.18;;;16.80;99.90;;;;;;5073009;28;20621;-52
2023/07/03 06:47:37;;;;;;;20.75;5.63;;;16.90;99.90;;;;;;5072843;28;20174;-52
2023/07/03 06:50:03;;;;;;;18.98;5.07;;;17.10;99.90;;;;;;5076885;28;20239;-52
2023/07/03 06:52:28;;;;;;;18.13;6.05;;;17.10;99.90;;;;;;5089071;28;20173;-52
2023/07/03 06:54:54;;;;;;;12.80;5.05;;;17.10;99.90;;;;;;5093047;28;20218;-52
2023/07/03 06:57:19;;;;;;;11.68;4.18;;;17.20;99.90;;;;;;5086712;28;20202;-51
2023/07/03 06:59:45;;;;;;;16.45;5.03;;;17.20;99.90;;;;;;5078555;28;20268;-51
2023/07/03 07:02:11;;;;;;;17.23;5.45;;;17.20;99.90;;;;;;5072211;28;20170;-51
2023/07/03 07:04:36;;;;;;;20.58;5.75;;;17.10;99.90;;;;;;5078063;28;20660;-51
2023/07/03 07:07:02;;;;;;;19.80;5.70;;;17.10;99.90;;;;;;5090840;28;20252;-52
2023/07/03 07:09:27;;;;;;;16.23;5.20;;;17.20;99.90;;;;;;5092710;28;20224;-52
2023/07/03 07:11:53;;;;;;;19.55;5.82;;;17.40;99.90;;;;;;5093267;28;20173;-52
2023/07/03 07:14:18;;;;;;;21.27;5.05;;;17.40;99.90;;;;;;5092715;28;20621;-52
2023/07/03 07:16:45;;;;;;;16.90;5.18;;;17.40;99.90;;;;;;5092668;28;20320;-52
2023/07/03 07:19:12;;;;;;;17.00;5.30;;;17.70;99.90;;;;;;5092757;28;20252;-52
2023/07/03 07:21:39;;;;;;;19.23;5.50;;;17.80;99.90;;;;;;5092721;28;20170;-52
2023/07/03 07:24:17;;;;;;;17.02;5.03;;;17.80;99.90;;;;;;5091822;28;20166;-52
2023/07/03 07:26:43;;;;;;;16.52;5.35;;;17.90;99.90;;;;;;5092371;28;20157;-52
2023/07/03 07:29:08;;;;;;;20.73;5.13;;;17.80;99.90;;;;;;5092272;28;20166;-52
2023/07/03 07:31:37;;;;;;;15.60;4.45;;;17.70;99.90;;;;;;5092601;28;20180;-52
2023/07/03 07:34:04;;;;;;;13.70;5.05;;;17.60;99.90;;;;;;5092202;28;20173;-52
2023/07/03 07:36:30;;;;;;;20.65;5.43;;;17.90;99.90;;;;;;5092374;28;20217;-52
2023/07/03 07:38:57;;;;;;;15.93;5.47;;;18.20;99.90;;;;;;5092230;28;20170;-52
2023/07/03 07:41:24;;;;;;;15.68;4.45;;;18.20;99.90;;;;;;5092596;28;20214;-52
2023/07/03 07:43:51;;;;;;;13.23;4.35;;;18.20;99.90;;;;;;5092298;28;20256;-52
2023/07/03 07:46:17;;;;;;;15.15;4.57;;;18.30;99.90;;;;;;5092079;28;20169;-52
2023/07/03 07:48:43;;;;;;;14.57;4.28;;;18.60;99.90;;;;;;5091976;28;20173;-52
2023/07/03 07:51:09;;;;;;;16.90;4.88;;;18.50;99.90;;;;;;5092090;28;20169;-52
2023/07/03 07:53:35;;;;;;;14.75;4.20;;;18.60;99.90;;;;;;5092007;28;20162;-52
2023/07/03 07:56:02;;;;;;;11.73;4.18;;;18.60;99.90;;;;;;5091824;28;20201;-52
2023/07/03 07:58:27;;;;;;;10.82;3.92;;;18.70;99.90;;;;;;5091970;28;20169;-52
2023/07/03 08:00:56;;;;;;;15.25;4.75;;;18.70;99.90;;;;;;5092280;28;20639;-52
2023/07/03 08:03:21;;;;;;;13.05;4.55;;;19.10;99.90;;;;;;5092132;28;20664;-52
2023/07/03 08:05:47;;;;;;;17.58;4.85;;;19.00;99.90;;;;;;5091737;28;20173;-52
2023/07/03 08:08:12;;;;;;;13.27;4.65;;;19.00;99.90;;;;;;5091743;28;20173;-52
2023/07/03 08:10:38;;;;;;;10.82;3.92;;;19.00;99.90;;;;;;5091622;28;20227;-52
2023/07/03 08:13:04;;;;;;;14.38;4.63;;;19.10;99.90;;;;;;5091694;28;20177;-52
2023/07/03 08:15:29;;;;;;;11.50;3.97;;;19.30;99.90;;;;;;5091516;28;20264;-52
2023/07/03 08:17:55;;;;;;;14.88;4.22;;;19.30;99.90;;;;;;5092322;28;20169;-52
2023/07/03 08:20:21;;;;;;;12.65;4.55;;;19.50;99.90;;;;;;5092118;28;20165;-52
2023/07/03 08:22:46;;;;;;;15.07;4.90;;;19.80;99.90;;;;;;5091891;28;20169;-52
2023/07/03 08:25:12;;;;;;;14.40;3.97;;;20.00;99.90;;;;;;5091532;28;20194;-51
2023/07/03 08:27:38;;;;;;;14.55;4.18;;;19.90;99.90;;;;;;5091800;28;20180;-52
2023/07/03 08:30:06;;;;;;;12.13;3.45;;;19.80;99.90;;;;;;5091848;28;20169;-52
2023/07/03 08:32:32;;;;;;;7.97;3.72;;;19.70;99.90;;;;;;5091771;28;20256;-52
2023/07/03 08:34:57;;;;;;;10.50;3.58;;;19.90;99.90;;;;;;5094137;28;20582;-52
2023/07/03 08:37:23;;;;;;;10.13;3.92;;;19.90;99.90;;;;;;5096086;28;20201;-52
2023/07/03 08:39:48;;;;;;;8.57;3.75;;;19.90;99.90;;;;;;5095626;28;20228;-52
2023/07/03 08:42:24;;;;;;;9.60;3.90;;;20.10;99.90;;;;;;5095317;28;20568;-52
2023/07/03 08:44:50;;;;;;;13.23;3.92;;;19.70;99.90;;;;;;5095538;28;20239;-52
2023/07/03 08:47:20;;;;;;;11.20;3.78;;;19.50;99.90;;;;;;5095252;28;20633;-52
2023/07/03 08:49:47;;;;;;;10.70;3.22;;;19.50;99.90;;;;;;5095453;28;20173;-52
2023/07/03 08:52:23;;;;;;;15.60;4.72;;;19.50;99.90;;;;;;5095157;28;20189;-52
2023/07/03 08:54:51;;;;;;;11.80;3.55;;;19.50;99.90;;;;;;5095328;28;20196;-52
2023/07/03 08:57:17;;;;;;;11.48;4.10;;;19.60;99.90;;;;;;5095104;28;20204;-52
2023/07/03 08:59:42;;;;;;;12.07;3.90;;;19.90;99.90;;;;;;5095114;28;20530;-52
2023/07/03 09:02:28;;;;;;;12.70;3.50;;;19.90;99.90;;;;;;5095262;28;20172;-52
2023/07/03 09:05:30;;;;;;;13.25;3.92;;;19.50;99.90;;;;;;5095506;28;20168;-51
2023/07/03 09:08:01;;;;;;;9.90;3.63;;;19.30;99.90;;;;;;5095555;28;20168;-52
2023/07/03 09:10:42;;;;;;;15.38;4.20;;;19.40;99.90;;;;;;5094802;28;20270;-52
2023/07/03 09:13:30;;;;;;;13.07;3.95;;;19.50;99.90;;;;;;5094964;28;20177;-51
2023/07/03 09:16:04;;;;;;;8.93;3.30;;;19.40;99.90;;;;;;5094865;28;20278;-51
2023/07/03 09:19:07;;;;;;;12.10;3.88;;;19.40;99.90;;;;;;5094893;28;20647;-51
2023/07/03 09:21:35;;;;;;;6.65;3.10;;;19.40;99.90;;;;;;5089847;28;20185;-52
2023/07/03 09:24:20;;;;;;;7.53;3.42;;;19.60;99.90;;;;;;5095031;28;20525;-52
2023/07/03 09:27:19;;;;;;;12.13;4.05;;;19.80;99.90;;;;;;5094300;28;20177;-52
2023/07/03 09:29:45;;;;;;;7.70;2.95;;;19.80;99.90;;;;;;5094816;28;20267;-50
2023/07/03 09:32:29;;;;;;;8.75;3.70;;;19.90;99.90;;;;;;5095026;28;20270;-50
2023/07/03 09:35:21;;;;;;;8.38;3.70;;;19.80;99.90;;;;;;5094996;28;20190;-50
2023/07/03 09:37:50;;;;;;;9.25;3.03;;;20.00;99.90;;;;;;5089966;28;20204;-51
2023/07/03 09:40:23;;;;;;;10.57;3.83;;;19.90;99.90;;;;;;5094363;28;20157;-51
2023/07/03 09:42:49;;;;;;;7.65;3.03;;;19.80;99.90;;;;;;5094407;28;20629;-51
2023/07/03 09:45:18;;;;;;;6.82;3.10;;;19.90;99.90;;;;;;5093589;28;20174;-51
2023/07/03 09:47:58;;;;;;;8.35;3.22;;;19.80;99.90;;;;;;5094110;28;20174;-51
2023/07/03 09:50:36;;;;;;;9.57;3.47;;;20.00;99.90;;;;;;5094602;28;20192;-50
2023/07/03 09:53:04;;;;;;;12.13;3.80;;;19.90;99.90;;;;;;5094215;28;20168;-50
2023/07/03 09:55:30;;;;;;;9.07;3.42;;;19.80;99.90;;;;;;5094078;28;20187;-50
2023/07/03 09:57:56;;;;;;;12.48;3.60;;;19.80;99.90;;;;;;5076245;28;20192;-50
2023/07/03 10:00:25;;;;;;;9.13;3.10;;;20.00;99.90;;;;;;5094541;28;20625;-50
2023/07/03 10:02:54;;;;;;;12.18;4.32;;;20.00;99.90;;;;;;5093781;28;20275;-50
2023/07/03 10:05:29;;;;;;;11.57;3.97;;;19.90;99.90;;;;;;5094310;28;20169;-50
2023/07/03 10:07:56;;;;;;;9.05;3.75;;;19.80;99.90;;;;;;5094371;28;20191;-50
2023/07/03 10:10:27;;;;;;;7.70;3.05;;;19.80;99.90;;;;;;5093946;28;20224;-50
2023/07/03 10:13:04;;;;;;;12.60;4.13;;;19.90;99.90;;;;;;5093921;28;20173;-50
2023/07/03 10:15:37;;;;;;;9.85;3.30;;;19.80;99.90;;;;;;5093422;28;20177;-50
2023/07/03 10:18:09;;;;;;;10.30;3.92;;;19.70;99.90;;;;;;5093267;28;20168;-50
2023/07/03 10:20:43;;;;;;;9.98;3.83;;;19.60;99.90;;;;;;5093433;28;20227;-50
2023/07/03 10:23:11;;;;;;;11.32;3.83;;;19.70;99.90;;;;;;5093539;28;20180;-50
2023/07/03 10:25:42;;;;;;;10.93;4.20;;;19.90;99.90;;;;;;5093897;28;20168;-50
2023/07/03 10:28:27;;;;;;;14.23;4.22;;;19.90;99.90;;;;;;5093079;28;20165;-50
2023/07/03 10:30:58;;;;;;;12.05;3.83;;;20.10;99.90;;;;;;5093718;28;20165;-50
2023/07/03 10:33:29;;;;;;;10.45;3.60;;;20.20;99.90;;;;;;5093556;28;20537;-50
2023/07/03 10:35:57;;;;;;;14.57;4.63;;;20.20;99.90;;;;;;5093453;28;20262;-50
2023/07/03 10:38:34;;;;;;;17.85;4.50;;;20.10;99.90;;;;;;5093804;28;20224;-50
2023/07/03 10:41:10;;;;;;;10.63;3.83;;;20.40;99.90;;;;;;5093056;28;20172;-50
2023/07/03 10:43:51;;;;;;;11.65;3.92;;;20.80;99.90;;;;;;5074944;28;20179;-50
2023/07/03 10:46:27;;;;;;;11.77;4.00;;;20.80;99.90;;;;;;5092722;28;20169;-50
2023/07/03 10:48:55;;;;;;;16.75;4.35;;;20.90;99.90;;;;;;5093409;28;20678;-51
2023/07/03 10:51:29;;;;;;;9.65;4.03;;;20.90;99.90;;;;;;5093027;28;20193;-51
2023/07/03 10:54:09;;;;;;;11.10;3.85;;;20.70;99.90;;;;;;5075088;28;20171;-50
2023/07/03 10:56:45;;;;;;;9.90;4.22;;;20.60;99.90;;;;;;5092643;28;20267;-50
2023/07/03 10:59:21;;;;;;;13.60;4.07;;;20.50;99.90;;;;;;5092877;28;20172;-51
2023/07/03 11:02:02;;;;;;;15.18;4.55;;;20.20;99.90;;;;;;5092411;28;20600;-51
2023/07/03 11:04:52;;;;;;;9.70;3.78;;;20.30;99.90;;;;;;5092405;28;20165;-50
2023/07/03 11:07:28;;;;;;;8.38;4.15;;;20.50;99.90;;;;;;5092599;28;20180;-50
2023/07/03 11:10:05;;;;;;;10.93;4.47;;;20.60;99.90;;;;;;5092777;28;20228;-51
2023/07/03 11:12:44;;;;;;;13.73;3.90;;;21.00;99.90;;;;;;5092972;28;20180;-51
2023/07/03 11:15:40;;;;;;;10.45;4.38;;;21.60;99.90;;;;;;5092595;28;20165;-51
2023/07/03 11:18:23;;;;;;;12.10;4.13;;;21.60;99.90;;;;;;5092734;28;20336;-51
2023/07/03 11:21:13;;;;;;;7.68;3.80;;;21.90;99.90;;;;;;5092515;28;20168;-50
2023/07/03 11:24:07;;;;;;;11.23;4.30;;;21.90;99.90;;;;;;5092344;28;20170;-50
2023/07/03 11:26:37;;;;;;;10.38;4.25;;;22.00;99.90;;;;;;5092691;28;20165;-50
2023/07/03 11:29:09;;;;;;;10.95;4.22;;;22.10;99.90;;;;;;5092493;28;20192;-51
2023/07/03 11:31:38;;;;;;;13.98;4.43;;;22.00;99.90;;;;;;5092700;28;20174;-51
2023/07/03 11:34:06;;;;;;;8.70;4.15;;;21.70;99.90;;;;;;5092621;28;20255;-51
2023/07/03 11:36:47;;;;;;;11.13;4.30;;;21.40;99.90;;;;;;5092432;28;20201;-51
2023/07/03 11:39:26;;;;;;;8.75;3.83;;;21.30;99.90;;;;;;5092515;28;20177;-51
2023/07/03 11:42:00;;;;;;;12.43;3.90;;;20.90;99.90;;;;;;5092543;28;20516;-51
2023/07/03 11:44:30;;;;;;;12.73;3.80;;;20.50;99.90;;;;;;5092100;28;20161;-51
2023/07/03 11:47:00;;;;;;;17.17;4.50;;;20.70;99.90;;;;;;5092024;28;20633;-51
2023/07/03 11:49:31;;;;;;;10.35;4.05;;;21.10;99.90;;;;;;5092245;28;20173;-50
2023/07/03 11:52:00;;;;;;;8.80;4.25;;;21.30;99.90;;;;;;5092255;28;20213;-51
2023/07/03 11:54:28;;;;;;;10.00;3.47;;;21.90;99.90;;;;;;5091543;28;20699;-51
2023/07/03 11:57:07;;;;;;;14.45;4.13;;;22.20;99.90;;;;;;5092532;28;20205;-50
2023/07/03 11:59:42;;;;;;;8.90;3.47;;;22.30;99.90;;;;;;5092311;28;20173;-51
2023/07/03 12:02:11;;;;;;;8.75;3.45;;;21.80;99.90;;;;;;5092053;28;20161;-51
2023/07/03 12:04:57;;;;;;;9.18;3.40;;;21.70;99.90;;;;;;5090793;28;20169;-51
2023/07/03 12:07:22;;;;;;;10.68;3.78;;;21.40;99.90;;;;;;5092197;28;20179;-51
2023/07/03 12:09:49;;;;;;;6.05;3.30;;;21.70;99.90;;;;;;5090811;28;20213;-51
2023/07/03 12:12:18;;;;;;;11.65;3.88;;;21.80;99.90;;;;;;5091423;28;20748;-51
2023/07/03 12:15:01;;;;;;;11.13;4.63;;;21.60;99.90;;;;;;5091231;28;20223;-51
2023/07/03 12:17:35;;;;;;;11.40;3.97;;;21.60;99.90;;;;;;5091108;28;20208;-51
2023/07/03 12:20:18;;;;;;;11.18;4.25;;;21.70;99.90;;;;;;5091270;28;20241;-51
2023/07/03 12:22:49;;;;;;;12.52;4.45;;;21.90;99.90;;;;;;5091807;28;20197;-51
2023/07/03 12:25:28;;;;;;;8.70;3.75;;;21.60;99.90;;;;;;5091651;28;20164;-51
2023/07/03 12:28:07;;;;;;;11.27;3.97;;;21.50;99.90;;;;;;5090847;28;20173;-51
2023/07/03 12:30:32;;;;;;;11.50;4.07;;;22.20;99.90;;;;;;5091442;28;20161;-51
2023/07/03 12:32:59;;;;;;;11.95;4.35;;;22.40;99.90;;;;;;5091141;28;20682;-51
2023/07/03 12:35:27;;;;;;;10.27;4.15;;;22.70;99.90;;;;;;5073403;28;20196;-51
2023/07/03 12:38:04;;;;;;;13.45;3.85;;;22.60;99.90;;;;;;5091506;28;20192;-51
2023/07/03 12:40:30;;;;;;;6.95;3.45;;;22.40;99.90;;;;;;5091013;28;20161;-51
2023/07/03 12:42:57;;;;;;;10.57;4.38;;;22.10;99.90;;;;;;5091565;28;20170;-51
2023/07/03 12:45:25;;;;;;;10.20;3.88;;;22.00;99.90;;;;;;5056731;28;20601;-51
2023/07/03 12:48:16;;;;;;;11.40;4.50;;;22.10;99.90;;;;;;5091654;28;20193;-51